createdAt,value
2022-11-24T00:04:29.782Z,99046.66
2022-11-24T00:09:31.495Z,99046.69
2022-11-24T00:14:33.591Z,99049.31
2022-11-24T00:19:35.492Z,99044.97
2022-11-24T00:24:37.208Z,99049.31
2022-11-24T00:29:39.175Z,99057.94
2022-11-24T00:34:42.046Z,99051.03
2022-11-24T00:39:43.742Z,99057.03
2022-11-24T00:44:45.433Z,99062.22
2022-11-24T00:49:47.151Z,99066.50
2022-11-24T00:54:48.926Z,99074.25
2022-11-24T00:59:50.652Z,99076.81
2022-11-24T01:04:52.356Z,99082.84
2022-11-24T01:09:54.077Z,99084.56
2022-11-24T01:14:55.848Z,99098.31
2022-11-24T01:19:57.539Z,99097.47
2022-11-24T01:24:59.302Z,99102.63
2022-11-24T01:30:01.092Z,99111.22
2022-11-24T01:35:06.911Z,99114.66
2022-11-24T01:40:09.442Z,99112.91
2022-11-24T01:45:32.393Z,99118.97
2022-11-24T01:50:35.900Z,99118.09
2022-11-24T01:55:39.794Z,99124.09
2022-11-24T02:00:45.320Z,99121.50
2022-11-24T02:06:12.263Z,99124.91
2022-11-24T02:11:14.245Z,99127.47
2022-11-24T02:16:16.048Z,99132.69
2022-11-24T02:21:18.334Z,99136.16
2022-11-24T02:26:43.057Z,99136.13
2022-11-24T02:31:49.853Z,99141.25
2022-11-24T02:36:51.543Z,99141.25
2022-11-24T02:42:04.973Z,99132.69
2022-11-24T02:47:12.335Z,99135.25
2022-11-24T02:52:14.047Z,99149.03
2022-11-24T02:57:15.813Z,99145.59
2022-11-24T03:02:17.596Z,99144.69
2022-11-24T03:07:19.472Z,99149.81
2022-11-24T03:12:21.236Z,99156.69
2022-11-24T03:17:22.969Z,99152.41
2022-11-24T03:22:24.686Z,99151.59
2022-11-24T03:27:26.731Z,99161.91
2022-11-24T03:32:28.503Z,99161.00
2022-11-24T03:37:30.564Z,99169.63
2022-11-24T03:42:32.308Z,99158.44
2022-11-24T03:47:34.160Z,99164.38
2022-11-24T03:52:35.898Z,99169.59
2022-11-24T03:57:37.614Z,99181.59
2022-11-24T04:02:39.408Z,99180.75
2022-11-24T04:07:41.245Z,99190.19
2022-11-24T04:12:45.854Z,99193.63
2022-11-24T04:17:49.120Z,99191.91
2022-11-24T04:22:51.909Z,99196.19
2022-11-24T04:27:55.286Z,99195.38
2022-11-24T04:32:57.375Z,99197.91
2022-11-24T04:38:02.976Z,99208.31
2022-11-24T04:43:04.828Z,99218.66
2022-11-24T04:48:06.549Z,99223.72
2022-11-24T04:53:10.214Z,99234.88
2022-11-24T04:58:11.876Z,99236.53
2022-11-24T05:03:15.554Z,99236.75
2022-11-24T05:08:33.998Z,99252.13
2022-11-24T05:13:35.742Z,99248.69
2022-11-24T05:18:38.052Z,99244.47
2022-11-24T05:23:39.813Z,99263.41
2022-11-24T05:28:41.583Z,99265.09
2022-11-24T05:33:43.336Z,99272.03
2022-11-24T05:38:45.090Z,99275.41
2022-11-24T05:43:46.713Z,99288.38
2022-11-24T05:48:48.601Z,99286.59
2022-11-24T05:53:50.299Z,99290.09
2022-11-24T05:58:51.918Z,99297.84
2022-11-24T06:03:53.502Z,99306.44
2022-11-24T06:08:55.127Z,99312.47
2022-11-24T06:13:56.961Z,99315.97
2022-11-24T06:19:00.026Z,99326.31
2022-11-24T06:24:02.464Z,99328.00
2022-11-24T06:29:04.308Z,99330.59
2022-11-24T06:34:11.584Z,99339.25
2022-11-24T06:39:13.209Z,99334.06
2022-11-24T06:44:14.831Z,99344.38
2022-11-24T06:49:16.494Z,99351.25
2022-11-24T06:54:21.449Z,99351.28
2022-11-24T06:59:23.078Z,99359.03
2022-11-24T07:04:24.711Z,99359.06
2022-11-24T07:09:26.319Z,99372.81
2022-11-24T07:14:27.927Z,99367.66
2022-11-24T07:19:29.630Z,99376.28
2022-11-24T07:24:31.409Z,99375.41
2022-11-24T07:29:33.209Z,99384.00
2022-11-24T07:34:35.075Z,99390.03
2022-11-24T07:39:36.935Z,99396.06
2022-11-24T07:44:38.660Z,99404.69
2022-11-24T07:49:40.290Z,99414.16
2022-11-24T07:54:41.884Z,99407.25
2022-11-24T07:59:43.500Z,99408.94
2022-11-24T08:04:45.307Z,99410.63
2022-11-24T08:09:46.982Z,99409.78
2022-11-24T08:14:50.404Z,99402.81
2022-11-24T08:19:52.015Z,99407.13
2022-11-24T08:24:53.892Z,99406.16
2022-11-24T08:29:55.562Z,99414.75
2022-11-24T08:35:08.557Z,99411.25
2022-11-24T08:40:16.132Z,99421.50
2022-11-24T08:45:22.463Z,99413.69
2022-11-24T08:50:26.065Z,99415.50
2022-11-24T08:55:27.711Z,99419.75
2022-11-24T09:00:29.351Z,99423.16
2022-11-24T09:10:54.750Z,99423.97
2022-11-24T09:15:56.446Z,99430.91
2022-11-24T09:21:10.150Z,99435.22
2022-11-24T09:26:17.605Z,99440.41
2022-11-24T09:31:26.113Z,99441.97
2022-11-24T09:36:28.543Z,99441.09
2022-11-24T09:41:30.126Z,99434.97
2022-11-24T09:46:52.526Z,99445.97
2022-11-24T09:51:56.455Z,99445.06
2022-11-24T09:57:00.747Z,99449.16
2022-11-24T10:02:02.681Z,99454.19
2022-11-24T10:07:30.135Z,99458.81
2022-11-24T10:13:12.209Z,99457.03
2022-11-24T10:18:27.806Z,99451.97
2022-11-24T10:23:41.420Z,99458.63
2022-11-24T10:28:55.302Z,99455.88
2022-11-24T10:34:01.953Z,99459.47
2022-11-24T10:39:12.608Z,99451.28
2022-11-24T10:44:15.444Z,99453.09
2022-11-24T10:49:26.950Z,99453.84
2022-11-24T10:54:28.976Z,99453.00
2022-11-24T10:59:39.336Z,99448.53
2022-11-24T11:04:41.209Z,99447.47
2022-11-24T11:09:42.823Z,99456.38
2022-11-24T11:14:47.615Z,99447.28
2022-11-24T11:19:56.974Z,99451.03
2022-11-24T11:25:22.832Z,99444.59
2022-11-24T11:35:50.154Z,99446.22
2022-11-24T11:40:52.252Z,99451.41
2022-11-24T11:46:17.790Z,99451.31
2022-11-24T11:51:23.904Z,99459.81
2022-11-24T11:56:30.321Z,99468.25
2022-11-24T12:01:38.456Z,99468.22
2022-11-24T12:06:51.818Z,99463.13
2022-11-24T12:12:21.189Z,99458.78
2022-11-24T12:17:34.790Z,99457.97
2022-11-24T12:22:52.805Z,99462.38
2022-11-24T12:28:11.422Z,99467.50
2022-11-24T12:33:27.968Z,99470.94
2022-11-24T12:38:48.162Z,99474.38
2022-11-24T12:43:56.490Z,99479.88
2022-11-24T12:49:24.298Z,99490.88
2022-11-24T12:54:35.328Z,99486.47
2022-11-24T12:59:46.657Z,99484.41
2022-11-24T13:05:01.923Z,99489.69
2022-11-24T13:10:46.904Z,99489.28
2022-11-24T13:16:07.088Z,99485.91
2022-11-24T13:21:36.614Z,99493.53
2022-11-24T13:26:41.491Z,99499.56
2022-11-24T13:31:43.689Z,99502.81
2022-11-24T13:36:53.625Z,99508.66
2022-11-24T13:41:55.194Z,99519.34
2022-11-24T13:47:26.782Z,99515.66
2022-11-24T13:52:40.502Z,99522.81
2022-11-24T13:58:18.447Z,99521.38
2022-11-24T14:03:26.407Z,99517.94
2022-11-24T14:08:34.965Z,99525.88
2022-11-24T14:13:36.976Z,99529.97
2022-11-24T14:18:44.028Z,99538.13
2022-11-24T14:23:47.199Z,99546.94
2022-11-24T14:28:49.655Z,99550.25
2022-11-24T14:34:23.461Z,99558.06
2022-11-24T14:39:26.723Z,99562.41
2022-11-24T14:44:32.223Z,99571.28
2022-11-24T14:49:37.590Z,99570.06
2022-11-24T14:55:21.252Z,99579.88
2022-11-24T15:00:27.719Z,99586.19
2022-11-24T15:05:52.866Z,99602.84
2022-11-24T15:11:00.407Z,99605.41
2022-11-24T15:16:06.538Z,99602.72
2022-11-24T15:21:11.793Z,99603.63
2022-11-24T15:26:17.335Z,99605.38
2022-11-24T15:31:19.008Z,99616.72
2022-11-24T15:36:20.814Z,99632.34
2022-11-24T15:41:32.337Z,99632.34
2022-11-24T15:46:39.730Z,99638.28
2022-11-24T15:51:44.732Z,99644.91
2022-11-24T15:56:47.131Z,99643.50
2022-11-24T16:01:50.569Z,99642.66
2022-11-24T16:06:52.302Z,99645.44
2022-11-24T16:11:54.098Z,99652.44
2022-11-24T16:16:56.133Z,99650.75
2022-11-24T16:21:57.890Z,99657.69
2022-11-24T16:26:59.629Z,99667.34
2022-11-24T16:32:01.417Z,99664.94
2022-11-24T16:37:03.164Z,99667.66
2022-11-24T16:42:05.145Z,99671.28
2022-11-24T16:47:07.102Z,99671.25
2022-11-24T16:52:08.892Z,99678.13
2022-11-24T16:57:14.976Z,99678.28
2022-11-24T17:02:17.232Z,99686.91
2022-11-24T17:07:20.657Z,99689.41
2022-11-24T17:12:22.532Z,99691.91
2022-11-24T17:17:24.199Z,99697.09
2022-11-24T17:22:25.895Z,99698.91
2022-11-24T17:27:27.612Z,99704.09
2022-11-24T17:32:29.469Z,99714.53
2022-11-24T17:37:32.187Z,99714.13
2022-11-24T17:42:34.342Z,99715.91
2022-11-24T17:47:36.084Z,99715.31
2022-11-24T17:52:37.719Z,99722.75
2022-11-24T17:57:39.466Z,99729.94
2022-11-24T18:02:41.341Z,99732.03
2022-11-24T18:07:43.261Z,99728.59
2022-11-24T18:12:44.927Z,99739.91
2022-11-24T18:17:46.725Z,99736.28
2022-11-24T18:28:10.120Z,99737.41
2022-11-24T18:33:11.792Z,99746.13
2022-11-24T18:38:13.572Z,99751.28
2022-11-24T18:43:15.392Z,99750.59
2022-11-24T18:48:17.059Z,99759.22
2022-11-24T18:53:20.908Z,99752.28
2022-11-24T18:58:23.298Z,99763.06
2022-11-24T19:03:25.073Z,99758.63
2022-11-24T19:08:27.107Z,99757.88
2022-11-24T19:13:28.880Z,99760.53
2022-11-24T19:18:31.163Z,99759.38
2022-11-24T19:23:33.060Z,99756.03
2022-11-24T19:28:34.846Z,99765.69
2022-11-24T19:33:36.816Z,99773.56
2022-11-24T19:38:39.488Z,99773.50
2022-11-24T19:43:41.847Z,99765.78
2022-11-24T19:48:54.628Z,99764.09
2022-11-24T19:53:56.762Z,99774.53
2022-11-24T19:58:58.775Z,99782.31
2022-11-24T20:04:05.864Z,99786.69
2022-11-24T20:09:08.859Z,99791.75
2022-11-24T20:14:15.468Z,99798.81
2022-11-24T20:19:18.548Z,99800.47
2022-11-24T20:24:22.535Z,99811.50
2022-11-24T20:29:24.368Z,99814.84
2022-11-24T20:34:27.321Z,99825.44
2022-11-24T20:39:29.272Z,99823.84
2022-11-24T20:44:31.450Z,99821.25
2022-11-24T20:49:33.257Z,99833.31
2022-11-24T20:54:35.256Z,99828.97
2022-11-24T20:59:37.032Z,99827.34
2022-11-24T21:04:38.774Z,99833.16
2022-11-24T21:09:40.508Z,99840.31
2022-11-24T21:14:42.329Z,99842.94
2022-11-24T21:19:44.118Z,99847.31
2022-11-24T21:24:45.845Z,99850.81
2022-11-24T21:29:47.552Z,99856.88
2022-11-24T21:34:49.520Z,99849.09
2022-11-24T21:39:51.181Z,99846.41
2022-11-24T21:44:52.862Z,99854.00
2022-11-24T21:49:54.959Z,99861.09
2022-11-24T21:54:56.726Z,99862.75
2022-11-24T21:59:58.478Z,99864.53
2022-11-24T22:05:00.144Z,99874.16
2022-11-24T22:10:01.837Z,99868.97
2022-11-24T22:15:03.667Z,99868.13
2022-11-24T22:20:06.071Z,99869.03
2022-11-24T22:25:08.192Z,99868.94
2022-11-24T22:30:10.618Z,99873.03
2022-11-24T22:35:12.318Z,99868.66
2022-11-24T22:40:14.019Z,99871.44
2022-11-24T22:45:15.787Z,99880.19
2022-11-24T22:50:17.560Z,99883.69
2022-11-24T22:55:19.341Z,99897.47
2022-11-24T23:00:21.100Z,99897.47
2022-11-24T23:05:22.777Z,99903.53
2022-11-24T23:10:24.436Z,99907.00
2022-11-24T23:15:26.108Z,99900.16
2022-11-24T23:20:27.751Z,99905.91
2022-11-24T23:25:29.620Z,99905.94
2022-11-24T23:30:31.256Z,99906.06
2022-11-24T23:35:33.072Z,99905.31
2022-11-24T23:40:34.775Z,99907.81
2022-11-24T23:45:36.568Z,99908.81
2022-11-24T23:50:38.195Z,99906.22
2022-11-24T23:55:39.877Z,99914.00
